Chiang Mai International Airport
VTCC : now visible

Airfield :











YOU CAN JOIN US ON...

 
LOGIN :

Register | Disclaimer

   EN    FR    IT 

 









Legend :    VFR   Marginal VFR   IFR   Intensive IFR   Very Intensive IFR
Visi :
Ceiling :
>= 8 km
>= 3000ft
5 to 8 km
1000 to 3000 ft
1500m to 5 km
500 to 1000 ft
800 to 1500m
200 to 500 ft
< 800m
< 200 ft
Symbols :   Thunderstorms  Fog  Heavy snow  Heavy precipitations  Wind > 20 kt






- Airport Elevation : 1036 ft
- IATA code : CNX


VTCC - Chiang Mai International

CURRENT METAR :
  • 020130Z 35005KT 8000 VCSH FEW010 FEW025CB BKN032 22/20 Q1015 NOSIG

EXPIRED METARs :
  • 020100Z 35004KT 9999 FEW010 BKN035 22/21 Q1015 NOSIG
  • 020030Z 35003KT 9999 FEW010 BKN035 21/20 Q1014 NOSIG
  • 020000Z 34004KT 9999 FEW010 BKN035 21/20 Q1014 NOSIG
  • 012330Z 34003KT 9999 FEW010 BKN035 21/20 Q1014 NOSIG
  • 012300Z 36003KT 9999 FEW010 BKN035 21/20 Q1013 NOSIG

TAF TAF VTCC
Valid from the 02 at 00:00 until the 03 at 06:00 UTC


012300Z 0200/0306 36005KT 9999 SCT035
BECMG 0202/0204 15005KT
TEMPO 0208/0214 -TSRA FEW025CB BKN035
BECMG 0210/0212 26005KT
BECMG 0214/0216 02005KT
VTBB FIR / Asia



MET'MAP, your aeronautical weather chart ! - Copyright ORBIFLY December 2007 - Disclaimer

ORBIFLY MET'MAP TEAM :

Programming & Development : Alexandra Zaïnal
Original concept : Baudouin d'Aumeries
Technical & hardware support : Manuel Goepfert
Assistance : Marc-Olivier Méhu




SOURCES & CREDITS :

   NOAA       Earth
Advisory